Time;durP1;ratioP1;P1;durP2;ratioP2;P2;SDS_P1;SDS_P2;PMS_P1;PMS_P2;Temp;Humidity;BMP_temperature;BMP_pressure;BME280_temperature;BME280_humidity;BME280_pressure;Samples;Min_cycle;Max_cycle;Signal;HPM_P1;HPM_P2
2023/09/19 00:01:45;;;;;;;0.00;0.00;;;17.30;99.90;;;;;;5090954;28;20258;-73
2023/09/19 00:04:12;;;;;;;0.00;0.00;;;17.30;99.90;;;;;;5090747;28;20188;-74
2023/09/19 00:06:41;;;;;;;0.00;0.00;;;17.20;99.90;;;;;;5090993;28;20180;-74
2023/09/19 00:09:10;;;;;;;0.00;0.00;;;17.20;99.90;;;;;;5085943;28;20631;-73
2023/09/19 00:11:37;;;;;;;0.00;0.00;;;17.10;99.90;;;;;;5091181;28;20650;-73
2023/09/19 00:14:04;;;;;;;0.00;0.00;;;17.10;99.90;;;;;;5090742;28;20172;-73
2023/09/19 00:16:30;;;;;;;0.00;0.00;;;17.00;99.90;;;;;;5090916;28;20195;-73
2023/09/19 00:18:55;;;;;;;0.00;0.00;;;17.00;99.90;;;;;;5090730;28;20196;-74
2023/09/19 00:21:21;;;;;;;0.00;0.00;;;17.00;99.90;;;;;;5090850;28;20263;-73
2023/09/19 00:23:47;;;;;;;0.00;0.00;;;17.00;99.90;;;;;;5090836;28;20179;-73
2023/09/19 00:26:13;;;;;;;0.00;0.00;;;17.10;99.90;;;;;;5091060;28;20184;-73
2023/09/19 00:28:39;;;;;;;0.00;0.00;;;17.10;99.90;;;;;;5091721;28;20180;-73
2023/09/19 00:31:08;;;;;;;0.00;0.00;;;17.20;99.90;;;;;;5098867;28;20215;-73
2023/09/19 00:33:34;;;;;;;0.00;0.00;;;17.30;99.90;;;;;;5094730;28;20183;-74
2023/09/19 00:36:01;;;;;;;0.05;0.05;;;17.30;99.90;;;;;;5094859;28;20223;-74
2023/09/19 00:38:27;;;;;;;0.00;0.00;;;17.40;99.90;;;;;;5095130;28;20176;-74
2023/09/19 00:40:54;;;;;;;0.00;0.00;;;17.40;99.90;;;;;;5093318;28;20554;-74
2023/09/19 00:43:20;;;;;;;0.00;0.00;;;17.40;99.90;;;;;;5094740;28;20172;-74
2023/09/19 00:45:51;;;;;;;0.00;0.00;;;17.50;99.90;;;;;;5094738;28;20187;-74
2023/09/19 00:48:17;;;;;;;0.00;0.00;;;17.60;99.90;;;;;;5094496;28;20176;-74
2023/09/19 00:50:43;;;;;;;0.00;0.00;;;17.60;99.90;;;;;;5094438;28;20184;-74
2023/09/19 00:53:13;;;;;;;0.00;0.00;;;17.70;99.90;;;;;;5094544;28;20643;-74
2023/09/19 00:55:40;;;;;;;0.00;0.00;;;17.70;99.90;;;;;;5094693;28;20248;-74
2023/09/19 00:58:06;;;;;;;0.00;0.00;;;17.70;99.90;;;;;;5094465;28;20183;-74
2023/09/19 01:00:33;;;;;;;0.00;0.00;;;17.70;99.90;;;;;;5094643;28;20180;-75
2023/09/19 01:03:01;;;;;;;0.00;0.00;;;17.60;99.90;;;;;;5093766;28;20179;-75
2023/09/19 01:05:27;;;;;;;0.00;0.00;;;17.50;99.90;;;;;;5094648;28;20259;-74
2023/09/19 01:07:53;;;;;;;0.00;0.00;;;17.50;99.90;;;;;;5094305;28;20180;-75
2023/09/19 01:10:20;;;;;;;0.00;0.00;;;17.40;99.90;;;;;;5094212;28;20183;-74
2023/09/19 01:13:16;;;;;;;0.00;0.00;;;17.30;99.90;;;;;;5094083;28;20180;-74
2023/09/19 01:16:19;;;;;;;0.00;0.00;;;17.20;99.90;;;;;;5094109;28;20208;-74
2023/09/19 01:19:29;;;;;;;0.00;0.00;;;17.20;99.90;;;;;;5088133;28;20179;-74
2023/09/19 01:22:17;;;;;;;0.00;0.00;;;17.20;99.90;;;;;;5083364;28;20273;-74
2023/09/19 01:24:55;;;;;;;0.00;0.00;;;17.20;99.90;;;;;;5094155;28;20183;-74
2023/09/19 01:27:20;;;;;;;0.00;0.00;;;17.30;99.90;;;;;;5094264;28;20208;-74
2023/09/19 01:29:48;;;;;;;0.00;0.00;;;17.30;99.90;;;;;;5093692;28;20648;-74
2023/09/19 01:32:17;;;;;;;0.00;0.00;;;17.40;99.90;;;;;;5093993;28;20235;-74
2023/09/19 01:34:47;;;;;;;0.00;0.00;;;17.40;99.90;;;;;;5093500;28;20204;-74
2023/09/19 01:37:13;;;;;;;0.00;0.00;;;17.30;99.90;;;;;;5093965;28;20187;-74
2023/09/19 01:39:40;;;;;;;0.00;0.00;;;17.30;99.90;;;;;;5093969;28;20207;-74
2023/09/19 01:42:20;;;;;;;0.00;0.00;;;17.30;99.90;;;;;;5093569;28;20195;-74
2023/09/19 01:44:53;;;;;;;0.00;0.00;;;17.30;99.90;;;;;;5093850;28;20738;-74
2023/09/19 01:47:28;;;;;;;0.00;0.00;;;17.20;99.90;;;;;;5094099;28;20219;-74
2023/09/19 01:50:05;;;;;;;0.00;0.00;;;17.10;99.90;;;;;;5093634;28;20229;-73
2023/09/19 01:52:42;;;;;;;0.00;0.00;;;17.00;99.90;;;;;;5093606;28;20172;-73
2023/09/19 01:55:10;;;;;;;0.00;0.00;;;17.00;99.90;;;;;;5093444;28;20207;-74
2023/09/19 01:57:43;;;;;;;0.00;0.00;;;17.00;99.90;;;;;;5093553;28;20187;-73
2023/09/19 02:00:11;;;;;;;0.00;0.00;;;16.90;99.90;;;;;;5093006;28;20181;-73
2023/09/19 02:02:44;;;;;;;0.00;0.00;;;16.90;99.90;;;;;;5092811;28;20180;-73
2023/09/19 02:05:10;;;;;;;0.00;0.00;;;16.90;99.90;;;;;;5093002;28;20555;-73
2023/09/19 02:07:37;;;;;;;0.00;0.00;;;16.90;99.90;;;;;;5093481;28;20172;-73
2023/09/19 02:10:05;;;;;;;0.00;0.00;;;16.90;99.90;;;;;;5077023;28;20663;-74
2023/09/19 02:12:32;;;;;;;0.00;0.00;;;16.80;99.90;;;;;;5093149;28;20548;-74
2023/09/19 02:14:59;;;;;;;0.00;0.00;;;16.80;99.90;;;;;;5093119;28;20572;-74
2023/09/19 02:17:25;;;;;;;0.00;0.00;;;16.80;99.90;;;;;;5092960;28;20309;-74
2023/09/19 02:19:52;;;;;;;0.00;0.00;;;16.90;99.90;;;;;;5092907;28;20180;-73
2023/09/19 02:22:18;;;;;;;0.00;0.00;;;17.00;99.90;;;;;;5093111;28;20191;-74
2023/09/19 02:24:43;;;;;;;0.00;0.00;;;17.00;99.90;;;;;;5091738;28;20651;-73
2023/09/19 02:27:12;;;;;;;0.00;0.00;;;17.10;99.90;;;;;;5092824;28;20186;-72
2023/09/19 02:29:37;;;;;;;0.00;0.00;;;17.10;99.90;;;;;;5092945;28;20188;-72
2023/09/19 02:32:03;;;;;;;0.00;0.00;;;17.10;99.90;;;;;;5091823;28;20261;-73
2023/09/19 02:34:29;;;;;;;0.00;0.00;;;17.20;99.90;;;;;;5092716;28;20199;-75
2023/09/19 02:36:55;;;;;;;0.00;0.00;;;17.20;99.90;;;;;;5092498;28;20180;-74
2023/09/19 02:39:21;;;;;;;0.00;0.00;;;17.20;99.90;;;;;;5091310;28;20708;-74
2023/09/19 02:41:47;;;;;;;0.00;0.00;;;17.20;99.90;;;;;;5092506;28;20184;-74
2023/09/19 02:44:12;;;;;;;0.00;0.00;;;17.20;99.90;;;;;;5092147;28;20670;-74
2023/09/19 02:46:38;;;;;;;0.00;0.00;;;17.20;99.90;;;;;;5092520;28;20662;-72
2023/09/19 02:49:06;;;;;;;0.00;0.00;;;17.30;99.90;;;;;;5092356;28;20271;-73
2023/09/19 02:51:32;;;;;;;0.00;0.00;;;17.30;99.90;;;;;;5092330;28;20631;-73
2023/09/19 02:54:03;;;;;;;0.00;0.00;;;17.30;99.90;;;;;;5091744;28;20546;-73
2023/09/19 02:56:30;;;;;;;0.00;0.00;;;17.40;99.90;;;;;;5083864;28;20203;-72
2023/09/19 02:58:56;;;;;;;0.00;0.00;;;17.50;99.90;;;;;;5091936;28;20181;-72
2023/09/19 03:01:22;;;;;;;0.00;0.00;;;17.70;99.90;;;;;;5092425;28;20210;-73
2023/09/19 03:03:47;;;;;;;0.00;0.00;;;17.70;99.90;;;;;;5092356;28;20180;-73
2023/09/19 03:06:13;;;;;;;0.00;0.00;;;17.70;99.90;;;;;;5091973;28;20180;-73
2023/09/19 03:08:39;;;;;;;0.10;0.10;;;17.80;99.90;;;;;;5092327;28;20176;-73
2023/09/19 03:11:11;;;;;;;0.00;0.00;;;17.70;99.90;;;;;;5092195;28;20188;-73
2023/09/19 03:13:37;;;;;;;0.00;0.00;;;17.80;99.90;;;;;;5092103;28;20184;-73
2023/09/19 03:16:05;;;;;;;0.00;0.00;;;17.80;99.90;;;;;;5091860;28;20218;-73
2023/09/19 03:18:34;;;;;;;0.00;0.00;;;17.70;99.90;;;;;;5075814;28;20172;-73
2023/09/19 03:21:00;;;;;;;0.00;0.00;;;17.70;99.90;;;;;;5092070;28;20229;-73
2023/09/19 03:23:26;;;;;;;0.00;0.00;;;17.80;99.90;;;;;;5091999;28;20172;-73
2023/09/19 03:25:52;;;;;;;0.00;0.00;;;17.70;99.90;;;;;;5091778;28;20685;-73
2023/09/19 03:28:18;;;;;;;0.00;0.00;;;17.60;99.90;;;;;;5091661;28;20669;-74
2023/09/19 03:30:44;;;;;;;0.00;0.00;;;17.60;99.90;;;;;;5091664;28;20222;-73
2023/09/19 03:33:12;;;;;;;0.00;0.00;;;17.50;99.90;;;;;;5090728;28;20180;-73
2023/09/19 03:35:39;;;;;;;0.00;0.00;;;17.50;99.90;;;;;;5091834;28;20266;-70
2023/09/19 03:38:05;;;;;;;0.00;0.00;;;17.50;99.90;;;;;;5091935;28;20172;-74
2023/09/19 03:40:30;;;;;;;0.00;0.00;;;17.40;99.90;;;;;;5107767;28;20186;-77
2023/09/19 03:42:56;;;;;;;0.00;0.00;;;17.30;99.90;;;;;;5098836;28;20176;-77
2023/09/19 03:45:22;;;;;;;0.00;0.00;;;17.30;99.90;;;;;;5091781;28;20203;-73
2023/09/19 03:47:47;;;;;;;0.00;0.00;;;17.20;99.90;;;;;;5091329;28;20215;-75
2023/09/19 03:50:17;;;;;;;0.00;0.00;;;17.10;99.90;;;;;;5091424;28;20183;-68
2023/09/19 03:52:45;;;;;;;0.00;0.00;;;17.10;99.90;;;;;;5092669;28;20177;-71
2023/09/19 03:55:11;;;;;;;0.00;0.00;;;17.10;99.90;;;;;;5111457;28;20250;-69
2023/09/19 03:57:37;;;;;;;0.00;0.00;;;17.00;99.90;;;;;;5092118;28;20203;-69
2023/09/19 04:00:12;;;;;;;0.00;0.00;;;17.00;99.90;;;;;;5091850;28;20215;-70
2023/09/19 04:02:39;;;;;;;0.00;0.00;;;16.90;99.90;;;;;;5091186;28;20198;-68
2023/09/19 04:05:05;;;;;;;0.00;0.00;;;16.90;99.90;;;;;;5090896;28;20176;-72
2023/09/19 04:07:30;;;;;;;0.00;0.00;;;16.80;99.90;;;;;;5091617;28;20645;-74
2023/09/19 04:09:56;;;;;;;0.00;0.00;;;16.80;99.90;;;;;;5091303;28;20188;-70
2023/09/19 04:12:22;;;;;;;0.00;0.00;;;16.70;99.90;;;;;;5090952;28;20180;-74
2023/09/19 04:14:49;;;;;;;0.00;0.00;;;16.70;99.90;;;;;;5092018;28;20207;-72
2023/09/19 04:17:14;;;;;;;0.00;0.00;;;16.60;99.90;;;;;;5107795;28;20227;-72
2023/09/19 04:19:41;;;;;;;0.00;0.00;;;16.60;99.90;;;;;;5091251;28;20203;-73
2023/09/19 04:22:07;;;;;;;0.00;0.00;;;16.60;99.90;;;;;;5091262;28;20176;-74
2023/09/19 04:24:32;;;;;;;0.00;0.00;;;16.50;99.90;;;;;;5091535;28;20686;-74
2023/09/19 04:26:59;;;;;;;0.00;0.00;;;16.50;99.90;;;;;;5091365;28;20182;-74
2023/09/19 04:29:26;;;;;;;0.00;0.00;;;16.50;99.90;;;;;;5091399;28;20222;-74
2023/09/19 04:31:52;;;;;;;0.00;0.00;;;16.40;99.90;;;;;;5091148;28;20569;-75
2023/09/19 04:34:17;;;;;;;0.00;0.00;;;16.40;99.90;;;;;;5090434;28;20218;-74
2023/09/19 04:36:43;;;;;;;0.00;0.00;;;16.40;99.90;;;;;;5090179;28;20192;-75
2023/09/19 04:39:10;;;;;;;0.00;0.00;;;16.40;99.90;;;;;;5091395;28;20187;-75
2023/09/19 04:41:38;;;;;;;0.00;0.00;;;16.40;99.90;;;;;;5091682;28;20176;-74
2023/09/19 04:44:05;;;;;;;0.00;0.00;;;16.40;99.90;;;;;;5104888;28;20187;-77
2023/09/19 04:46:30;;;;;;;0.10;0.10;;;16.40;99.90;;;;;;5103155;28;20184;-74
2023/09/19 04:48:56;;;;;;;0.00;0.00;;;16.40;99.90;;;;;;5090610;28;20206;-74
2023/09/19 04:51:21;;;;;;;0.00;0.00;;;16.40;99.90;;;;;;5091055;28;20665;-74
2023/09/19 04:53:47;;;;;;;0.00;0.00;;;16.40;99.90;;;;;;5091154;28;20214;-74
2023/09/19 04:56:13;;;;;;;0.00;0.00;;;16.40;99.90;;;;;;5089439;28;20255;-74
2023/09/19 04:58:39;;;;;;;0.00;0.00;;;16.40;99.90;;;;;;5091010;28;20199;-75
2023/09/19 05:01:04;;;;;;;0.00;0.00;;;16.40;99.90;;;;;;5090985;28;20180;-75
2023/09/19 05:03:30;;;;;;;0.00;0.00;;;16.40;99.90;;;;;;5090977;28;20183;-74
2023/09/19 05:05:56;;;;;;;0.03;0.03;;;16.40;99.90;;;;;;5091002;28;20172;-74
2023/09/19 05:08:22;;;;;;;0.00;0.00;;;16.40;99.90;;;;;;5091260;28;20267;-75
2023/09/19 05:10:48;;;;;;;0.00;0.00;;;16.40;99.90;;;;;;5091112;28;20539;-75
2023/09/19 05:13:14;;;;;;;0.00;0.00;;;16.40;99.90;;;;;;5091124;28;20187;-74
2023/09/19 05:15:40;;;;;;;0.00;0.00;;;16.40;99.90;;;;;;5090317;28;20223;-75
2023/09/19 05:18:06;;;;;;;0.30;0.30;;;16.40;99.90;;;;;;5094636;28;20650;-75
2023/09/19 05:20:36;;;;;;;0.00;0.00;;;16.40;99.90;;;;;;5094902;28;20169;-75
2023/09/19 05:23:05;;;;;;;0.00;0.00;;;16.50;99.90;;;;;;5094772;28;20221;-75
2023/09/19 05:25:37;;;;;;;0.00;0.00;;;16.50;99.90;;;;;;5094559;28;20676;-75
2023/09/19 05:28:05;;;;;;;0.00;0.00;;;16.50;99.90;;;;;;5094343;28;20207;-75
2023/09/19 05:30:32;;;;;;;0.00;0.00;;;16.50;99.90;;;;;;5094198;28;20766;-74
2023/09/19 05:32:58;;;;;;;0.00;0.00;;;16.50;99.90;;;;;;5094122;28;20263;-74
2023/09/19 05:35:25;;;;;;;0.00;0.00;;;16.60;99.90;;;;;;5094225;28;20647;-74
2023/09/19 05:37:52;;;;;;;0.00;0.00;;;16.50;99.90;;;;;;5092843;28;20822;-74
2023/09/19 05:40:18;;;;;;;0.00;0.00;;;16.60;99.90;;;;;;5094064;28;20659;-74
2023/09/19 05:42:44;;;;;;;0.00;0.00;;;16.60;99.90;;;;;;5094080;28;20176;-75
2023/09/19 05:45:14;;;;;;;0.00;0.00;;;16.60;99.90;;;;;;5094097;28;20176;-74
2023/09/19 05:47:45;;;;;;;0.00;0.00;;;16.70;99.90;;;;;;5093971;28;20230;-74
2023/09/19 05:50:11;;;;;;;0.00;0.00;;;16.60;99.90;;;;;;5093988;28;20688;-73
2023/09/19 05:52:37;;;;;;;0.20;0.20;;;16.70;99.90;;;;;;5093914;28;20639;-74
2023/09/19 05:55:07;;;;;;;0.00;0.00;;;16.70;99.90;;;;;;5092593;28;20307;-74
2023/09/19 05:57:33;;;;;;;0.00;0.00;;;16.70;99.90;;;;;;5093895;28;20601;-74
2023/09/19 05:59:59;;;;;;;0.00;0.00;;;16.70;99.90;;;;;;5093828;28;20172;-74
2023/09/19 06:02:28;;;;;;;0.00;0.00;;;16.70;99.90;;;;;;5094050;28;20191;-74
2023/09/19 06:04:55;;;;;;;0.00;0.00;;;16.70;99.90;;;;;;5093950;28;20237;-74
2023/09/19 06:07:22;;;;;;;0.00;0.00;;;16.70;99.90;;;;;;5093997;28;20164;-75
2023/09/19 06:09:47;;;;;;;0.00;0.00;;;16.80;99.90;;;;;;5092659;28;20517;-74
2023/09/19 06:12:15;;;;;;;0.10;0.10;;;16.80;99.90;;;;;;5093782;28;20187;-74
2023/09/19 06:14:41;;;;;;;0.00;0.00;;;16.80;99.90;;;;;;5093872;28;20188;-74
2023/09/19 06:17:06;;;;;;;0.00;0.00;;;16.90;99.90;;;;;;5093754;28;20184;-74
2023/09/19 06:19:32;;;;;;;0.00;0.00;;;16.90;99.90;;;;;;5093797;28;20199;-74
2023/09/19 06:21:59;;;;;;;0.00;0.00;;;17.00;99.90;;;;;;5093531;28;20187;-74
2023/09/19 06:24:25;;;;;;;0.00;0.00;;;17.10;99.90;;;;;;5093750;28;20229;-74
2023/09/19 06:26:52;;;;;;;0.00;0.00;;;17.30;99.90;;;;;;5093596;28;20233;-75
2023/09/19 06:29:18;;;;;;;0.00;0.00;;;17.40;99.90;;;;;;5092673;28;20186;-74
2023/09/19 06:31:44;;;;;;;0.00;0.00;;;17.40;99.90;;;;;;5093391;28;20307;-74
2023/09/19 06:34:10;;;;;;;0.00;0.00;;;17.50;99.90;;;;;;5093279;28;20643;-74
2023/09/19 06:36:35;;;;;;;0.00;0.00;;;17.50;99.90;;;;;;5093395;28;20195;-74
2023/09/19 06:39:04;;;;;;;0.00;0.00;;;17.50;99.90;;;;;;5093447;28;20164;-74
2023/09/19 06:41:30;;;;;;;0.00;0.00;;;17.60;99.90;;;;;;5093522;28;20258;-74
2023/09/19 06:43:55;;;;;;;0.00;0.00;;;17.50;99.90;;;;;;5093156;28;20207;-73
2023/09/19 06:46:21;;;;;;;0.10;0.10;;;17.50;99.90;;;;;;5093229;28;20210;-73
2023/09/19 06:48:47;;;;;;;0.00;0.00;;;17.50;99.90;;;;;;5093166;28;20184;-74
2023/09/19 06:51:15;;;;;;;0.00;0.00;;;17.50;99.90;;;;;;5093106;28;20187;-73
2023/09/19 06:53:41;;;;;;;0.00;0.00;;;17.40;99.90;;;;;;5093070;28;20294;-73
2023/09/19 06:56:07;;;;;;;0.00;0.00;;;17.50;99.90;;;;;;5092740;28;20303;-74
2023/09/19 06:58:32;;;;;;;0.00;0.00;;;17.50;99.90;;;;;;5093030;28;20536;-74
2023/09/19 07:00:58;;;;;;;0.00;0.00;;;17.50;99.90;;;;;;5092799;28;20171;-74
2023/09/19 07:03:26;;;;;;;0.00;0.00;;;17.50;99.90;;;;;;5092974;28;20172;-73
2023/09/19 07:05:52;;;;;;;0.00;0.00;;;17.50;99.90;;;;;;5092753;28;20184;-75
2023/09/19 07:08:19;;;;;;;0.00;0.00;;;17.60;99.90;;;;;;5092779;28;20646;-74
2023/09/19 07:10:48;;;;;;;0.00;0.00;;;17.50;99.90;;;;;;5092757;28;20176;-73
2023/09/19 07:13:16;;;;;;;0.00;0.00;;;17.60;99.90;;;;;;5092710;28;20179;-73
2023/09/19 07:15:46;;;;;;;0.00;0.00;;;17.70;99.90;;;;;;5091337;28;20208;-74
2023/09/19 07:18:14;;;;;;;0.00;0.00;;;17.70;99.90;;;;;;5092685;28;20267;-73
2023/09/19 07:20:45;;;;;;;0.08;0.08;;;17.80;99.90;;;;;;5092648;28;20164;-74
2023/09/19 07:23:17;;;;;;;0.00;0.00;;;17.90;99.90;;;;;;5091309;28;20190;-74
2023/09/19 07:25:43;;;;;;;0.00;0.00;;;18.00;99.90;;;;;;5092651;28;20191;-74
2023/09/19 07:28:09;;;;;;;0.00;0.00;;;18.20;99.90;;;;;;5092515;28;20168;-73
2023/09/19 07:30:41;;;;;;;0.00;0.00;;;18.30;99.90;;;;;;5092173;28;20216;-74
2023/09/19 07:33:07;;;;;;;0.00;0.00;;;18.40;99.90;;;;;;5092389;28;20180;-73
2023/09/19 07:35:33;;;;;;;0.00;0.00;;;18.50;99.90;;;;;;5092382;28;20303;-75
2023/09/19 07:38:01;;;;;;;0.00;0.00;;;18.70;99.90;;;;;;5092205;28;20582;-73
2023/09/19 07:40:28;;;;;;;0.00;0.00;;;18.70;99.90;;;;;;5092060;28;20168;-73
2023/09/19 07:42:54;;;;;;;0.00;0.00;;;18.80;99.90;;;;;;5092281;28;20521;-74
2023/09/19 07:45:20;;;;;;;0.00;0.00;;;18.90;99.90;;;;;;5092271;28;20233;-73
2023/09/19 07:47:47;;;;;;;0.00;0.00;;;19.20;99.90;;;;;;5092206;28;20176;-73
2023/09/19 07:50:14;;;;;;;0.00;0.00;;;19.50;99.90;;;;;;5092156;28;20198;-73
2023/09/19 07:52:40;;;;;;;0.00;0.00;;;19.80;99.90;;;;;;5092137;28;20211;-74
2023/09/19 07:55:11;;;;;;;0.00;0.00;;;20.00;99.90;;;;;;5092015;28;20234;-74
2023/09/19 07:57:37;;;;;;;0.00;0.00;;;20.30;99.90;;;;;;5091910;28;20686;-73
2023/09/19 08:00:07;;;;;;;0.00;0.00;;;20.80;99.90;;;;;;5091959;28;20180;-73
2023/09/19 08:02:52;;;;;;;0.00;0.00;;;21.20;99.90;;;;;;5092105;28;20488;-73
2023/09/19 08:05:18;;;;;;;0.00;0.00;;;21.60;99.90;;;;;;5091809;28;20258;-74
2023/09/19 08:07:48;;;;;;;0.00;0.00;;;21.90;99.90;;;;;;5091909;28;20298;-74
2023/09/19 08:10:15;;;;;;;0.00;0.00;;;22.00;99.90;;;;;;5090624;28;20321;-74
2023/09/19 08:12:48;;;;;;;0.00;0.00;;;21.90;99.90;;;;;;5091885;28;20164;-74
2023/09/19 08:15:15;;;;;;;0.00;0.00;;;22.00;99.90;;;;;;5091687;28;20239;-76
2023/09/19 08:17:41;;;;;;;0.00;0.00;;;22.00;99.90;;;;;;5091782;28;20628;-76
2023/09/19 08:20:15;;;;;;;0.00;0.00;;;22.00;99.90;;;;;;5091849;28;20172;-74
2023/09/19 08:22:44;;;;;;;0.00;0.00;;;21.80;99.90;;;;;;5092226;28;20509;-74
2023/09/19 08:25:09;;;;;;;0.00;0.00;;;21.60;99.90;;;;;;5092053;28;20233;-74
2023/09/19 08:27:36;;;;;;;0.00;0.00;;;21.50;99.90;;;;;;5092266;28;20172;-74
2023/09/19 08:30:02;;;;;;;0.00;0.00;;;21.60;99.90;;;;;;5091553;28;20164;-73
2023/09/19 08:32:28;;;;;;;0.00;0.00;;;21.80;99.90;;;;;;5091758;28;20326;-75
2023/09/19 08:34:54;;;;;;;0.00;0.00;;;21.90;99.90;;;;;;5091442;28;20255;-74
2023/09/19 08:37:19;;;;;;;0.15;0.15;;;21.80;99.90;;;;;;5091718;28;20172;-75
2023/09/19 08:39:46;;;;;;;0.10;0.10;;;21.40;99.90;;;;;;5091655;28;20241;-75
2023/09/19 08:42:12;;;;;;;0.00;0.00;;;21.50;99.90;;;;;;5091610;28;20198;-74
2023/09/19 08:44:40;;;;;;;0.00;0.00;;;21.40;99.90;;;;;;5091530;28;20225;-75
2023/09/19 08:47:11;;;;;;;0.00;0.00;;;21.20;99.90;;;;;;5091403;28;20176;-74
2023/09/19 08:49:43;;;;;;;0.52;0.52;;;21.20;99.90;;;;;;5091455;28;20176;-74
2023/09/19 08:52:23;;;;;;;0.00;0.00;;;21.00;99.90;;;;;;5094041;28;20211;-74
2023/09/19 08:54:52;;;;;;;0.00;0.00;;;21.10;99.90;;;;;;5095437;28;20210;-74
2023/09/19 08:57:21;;;;;;;0.00;0.00;;;21.30;99.90;;;;;;5095300;28;20243;-74
2023/09/19 08:59:49;;;;;;;0.00;0.00;;;21.40;99.90;;;;;;5095320;28;20237;-74
2023/09/19 09:02:18;;;;;;;0.00;0.00;;;21.40;99.60;;;;;;5095157;28;20204;-75
2023/09/19 09:04:45;;;;;;;0.00;0.00;;;21.50;99.60;;;;;;5095271;28;20164;-74
2023/09/19 09:07:15;;;;;;;0.00;0.00;;;21.50;99.70;;;;;;5095146;28;20187;-74
2023/09/19 09:09:42;;;;;;;0.03;0.03;;;21.50;99.90;;;;;;5095132;28;20234;-74
2023/09/19 09:12:13;;;;;;;0.00;0.00;;;21.60;99.70;;;;;;5095120;28;20818;-74
2023/09/19 09:14:50;;;;;;;0.00;0.00;;;21.70;99.60;;;;;;5094862;28;20296;-74
2023/09/19 09:17:20;;;;;;;0.00;0.00;;;21.80;99.20;;;;;;5095002;28;20176;-74
2023/09/19 09:19:47;;;;;;;0.00;0.00;;;21.80;98.70;;;;;;5095038;28;20208;-74
2023/09/19 09:22:12;;;;;;;0.00;0.00;;;21.90;99.50;;;;;;5094891;28;20187;-74
2023/09/19 09:24:53;;;;;;;0.00;0.00;;;22.00;99.30;;;;;;5094748;28;20827;-74
2023/09/19 09:27:20;;;;;;;0.00;0.00;;;22.20;98.90;;;;;;5095036;28;20176;-74
2023/09/19 09:29:49;;;;;;;0.00;0.00;;;22.30;99.30;;;;;;5094759;28;20635;-74
2023/09/19 09:32:20;;;;;;;0.00;0.00;;;22.60;98.20;;;;;;5094509;28;20547;-75
2023/09/19 09:34:53;;;;;;;0.00;0.00;;;22.70;98.40;;;;;;5094612;28;20195;-74
2023/09/19 09:37:20;;;;;;;0.00;0.00;;;22.70;98.30;;;;;;5094647;28;20715;-74
2023/09/19 09:40:19;;;;;;;0.00;0.00;;;22.70;98.20;;;;;;5094670;28;20188;-75
2023/09/19 09:42:49;;;;;;;0.00;0.00;;;22.90;98.30;;;;;;5094604;28;20263;-75
2023/09/19 09:48:03;;;;;;;0.00;0.00;;;23.20;97.70;;;;;;5094473;28;20172;-75
2023/09/19 09:50:44;;;;;;;0.05;0.05;;;23.30;97.60;;;;;;5094436;28;20663;-75
2023/09/19 09:53:28;;;;;;;0.00;0.00;;;23.50;95.90;;;;;;5094488;28;20179;-75
2023/09/19 09:56:00;;;;;;;0.00;0.00;;;23.70;94.90;;;;;;5094105;28;20698;-74
2023/09/19 09:58:29;;;;;;;0.03;0.03;;;23.90;94.70;;;;;;5094319;28;20176;-75
2023/09/19 10:00:59;;;;;;;0.00;0.00;;;23.90;94.60;;;;;;5094070;28;20266;-74
2023/09/19 10:03:39;;;;;;;0.00;0.00;;;24.00;94.80;;;;;;5094210;28;20577;-75
2023/09/19 10:09:11;;;;;;;0.00;0.00;;;24.70;94.80;;;;;;5094067;28;20505;-74
2023/09/19 10:11:45;;;;;;;0.00;0.00;;;24.90;93.50;;;;;;5093900;28;20650;-74
2023/09/19 10:14:13;;;;;;;0.00;0.00;;;24.90;92.10;;;;;;5092637;28;20187;-74
2023/09/19 10:16:46;;;;;;;0.00;0.00;;;24.60;91.40;;;;;;5093773;28;20191;-74
2023/09/19 10:19:21;;;;;;;0.00;0.00;;;24.20;91.40;;;;;;5093879;28;20176;-75
2023/09/19 10:21:47;;;;;;;0.00;0.00;;;23.90;91.10;;;;;;5093910;28;20552;-75
2023/09/19 10:24:16;;;;;;;0.00;0.00;;;24.00;91.50;;;;;;5093800;28;20543;-76
2023/09/19 10:26:43;;;;;;;0.00;0.00;;;23.90;90.90;;;;;;5093714;28;20230;-74
2023/09/19 10:29:10;;;;;;;0.00;0.00;;;23.60;90.60;;;;;;5093643;28;20176;-74
2023/09/19 10:31:40;;;;;;;0.00;0.00;;;23.20;90.70;;;;;;5093448;28;20228;-74
2023/09/19 10:34:09;;;;;;;0.00;0.00;;;23.30;90.90;;;;;;5093554;28;20176;-75
2023/09/19 10:36:37;;;;;;;0.00;0.00;;;23.30;90.40;;;;;;5093472;28;20192;-74
2023/09/19 10:39:06;;;;;;;0.00;0.00;;;23.30;91.20;;;;;;5093382;28;20176;-73
2023/09/19 10:41:34;;;;;;;0.00;0.00;;;23.30;91.00;;;;;;5093516;28;20207;-74
2023/09/19 10:44:04;;;;;;;0.20;0.20;;;23.30;91.00;;;;;;5093306;28;20255;-75
2023/09/19 10:46:32;;;;;;;0.00;0.00;;;23.30;91.40;;;;;;5093394;28;20172;-74
2023/09/19 10:49:02;;;;;;;0.00;0.00;;;23.30;91.30;;;;;;5093107;28;20192;-75
2023/09/19 10:51:38;;;;;;;0.00;0.00;;;23.30;91.30;;;;;;5093371;28;20267;-75
2023/09/19 10:54:13;;;;;;;0.00;0.00;;;23.20;91.00;;;;;;5093108;28;20184;-75
2023/09/19 10:56:45;;;;;;;0.00;0.00;;;23.10;90.60;;;;;;5093048;28;20180;-75
2023/09/19 10:59:13;;;;;;;0.38;0.38;;;22.90;90.80;;;;;;5092981;28;20176;-74
2023/09/19 11:02:17;;;;;;;0.00;0.00;;;22.60;90.80;;;;;;5092862;28;20188;-74
2023/09/19 11:04:45;;;;;;;0.00;0.00;;;22.40;91.50;;;;;;5080885;28;20196;-74
2023/09/19 11:07:15;;;;;;;0.00;0.00;;;22.60;91.70;;;;;;5092871;28;20184;-75
2023/09/19 11:09:53;;;;;;;0.00;0.00;;;22.70;91.90;;;;;;5092946;28;20168;-75
2023/09/19 11:12:40;;;;;;;0.00;0.00;;;22.60;91.50;;;;;;5092852;28;20160;-75
2023/09/19 11:15:13;;;;;;;0.00;0.00;;;22.50;92.00;;;;;;5092191;28;20234;-75
2023/09/19 11:17:46;;;;;;;0.00;0.00;;;22.60;91.70;;;;;;5092815;28;20627;-75
2023/09/19 11:22:58;;;;;;;0.00;0.00;;;22.90;92.50;;;;;;5092554;28;20180;-75
2023/09/19 11:25:30;;;;;;;0.00;0.00;;;23.00;91.30;;;;;;5092751;28;20184;-75
2023/09/19 11:30:43;;;;;;;0.47;0.47;;;23.30;90.80;;;;;;5092535;28;20212;-76
2023/09/19 11:33:23;;;;;;;0.00;0.00;;;23.30;91.30;;;;;;5092526;28;20698;-75
2023/09/19 11:36:15;;;;;;;0.00;0.00;;;23.30;90.40;;;;;;5092444;28;20623;-76
2023/09/19 11:38:49;;;;;;;0.00;0.00;;;23.20;90.70;;;;;;5092335;28;20671;-76
2023/09/19 11:41:21;;;;;;;0.00;0.00;;;23.10;90.20;;;;;;5092167;28;20184;-76
2023/09/19 11:44:00;;;;;;;0.00;0.00;;;23.20;90.60;;;;;;5092356;28;20196;-77
2023/09/19 11:46:50;;;;;;;0.00;0.00;;;23.30;90.90;;;;;;5092404;28;20176;-76
2023/09/19 11:49:20;;;;;;;0.10;0.10;;;23.30;90.20;;;;;;5084817;28;20191;-76
2023/09/19 11:51:47;;;;;;;0.00;0.00;;;23.50;91.10;;;;;;5092253;28;20217;-77
2023/09/19 11:54:18;;;;;;;0.00;0.00;;;23.60;90.70;;;;;;5091884;28;20190;-77
2023/09/19 11:56:45;;;;;;;0.00;0.00;;;23.60;90.80;;;;;;5092183;28;20245;-76
2023/09/19 11:59:11;;;;;;;0.00;0.00;;;23.50;90.00;;;;;;5092044;28;20178;-78
2023/09/19 12:01:43;;;;;;;0.00;0.00;;;23.70;90.30;;;;;;5091972;28;20667;-77
2023/09/19 12:04:11;;;;;;;0.00;0.00;;;23.80;90.00;;;;;;5091997;28;20176;-77
2023/09/19 12:06:40;;;;;;;0.00;0.00;;;24.10;90.50;;;;;;5091874;28;20788;-76
2023/09/19 12:09:10;;;;;;;0.00;0.00;;;24.20;89.10;;;;;;5091975;28;20164;-77
2023/09/19 12:11:43;;;;;;;0.00;0.00;;;24.20;86.50;;;;;;5091844;28;20180;-76
2023/09/19 12:14:09;;;;;;;0.00;0.00;;;24.20;87.10;;;;;;5091813;28;20214;-75
2023/09/19 12:16:36;;;;;;;1.02;1.02;;;24.30;88.70;;;;;;5091717;28;20251;-79
2023/09/19 12:19:23;;;;;;;0.03;0.03;;;24.50;87.60;;;;;;5091692;28;20669;-78
2023/09/19 12:22:05;;;;;;;0.00;0.00;;;24.50;87.20;;;;;;5091901;28;20183;-76
2023/09/19 12:24:32;;;;;;;0.00;0.00;;;24.70;88.70;;;;;;5091835;28;20641;-77
2023/09/19 12:27:05;;;;;;;0.00;0.00;;;24.60;85.20;;;;;;5094025;28;20168;-76
2023/09/19 12:29:32;;;;;;;0.00;0.00;;;24.50;84.20;;;;;;5095972;28;20176;-78
2023/09/19 12:31:58;;;;;;;0.00;0.00;;;24.50;84.90;;;;;;5095606;28;20305;-76
2023/09/19 12:34:28;;;;;;;0.00;0.00;;;24.50;84.40;;;;;;5095775;28;20191;-79
2023/09/19 12:37:12;;;;;;;0.00;0.00;;;24.60;84.80;;;;;;5095752;28;20219;-76
2023/09/19 12:39:40;;;;;;;0.00;0.00;;;24.50;82.90;;;;;;5095598;28;20172;-77
2023/09/19 12:42:08;;;;;;;0.00;0.00;;;24.50;83.20;;;;;;5095550;28;20188;-77
2023/09/19 12:44:36;;;;;;;0.00;0.00;;;24.60;83.80;;;;;;5095661;28;20184;-76
2023/09/19 12:47:09;;;;;;;0.00;0.00;;;24.40;84.50;;;;;;5095568;28;20172;-77
2023/09/19 12:49:35;;;;;;;0.00;0.00;;;24.50;84.00;;;;;;5095649;28;20179;-76
2023/09/19 12:52:00;;;;;;;0.00;0.00;;;24.40;83.20;;;;;;5095567;28;20275;-76
2023/09/19 12:54:41;;;;;;;0.00;0.00;;;24.20;83.20;;;;;;5096001;28;20175;-77
2023/09/19 12:57:06;;;;;;;0.00;0.00;;;24.00;84.70;;;;;;5095830;28;20317;-76
2023/09/19 12:59:32;;;;;;;0.00;0.00;;;23.90;84.40;;;;;;5096293;28;20207;-77
2023/09/19 13:02:05;;;;;;;0.00;0.00;;;23.70;85.30;;;;;;5095219;28;20667;-76
2023/09/19 13:04:33;;;;;;;0.00;0.00;;;23.50;85.80;;;;;;5095496;28;20247;-77
2023/09/19 13:07:00;;;;;;;0.00;0.00;;;23.20;85.90;;;;;;5095103;28;20172;-75
2023/09/19 13:09:34;;;;;;;0.00;0.00;;;23.20;87.80;;;;;;5095182;28;20605;-76